Terminal Aerodrome Forecast
Issued by NWS

Home | Current Version | Previous Version | Text Only | Print | Product List | Glossary On
Versions: 1 2 3 4 5 6 7 8 9 10 11 12 13 14 15 16 17 18 19 20 21 22 23 24 25 26 27 28 29 30 31 32
000
FTUS44 KOUN 192320
TAFWWR
TAF
KWWR 192320Z 2000/2024 16008KT P6SM SCT040 BKN150
     FM201000 17004KT 4SM BR BKN005
     FM201400 20008KT P6SM BKN020 BKN150
     FM201700 18010KT P6SM SCT045=

USA.gov is the U.S. government's official web portal to all federal, state and local government web resources and services.